Аэропорт: Байкал. Улан-Удэ

ICAO: UIUU

METAR:
2021-04-21 22:00:00
UIUU 212200Z 02003MPS 9999 NSC M03/M09 Q1023 R08/CLRD60 NOSIG RMK QFE722/0962
METAR:
2021-04-21 20:00:00
TAF UIUU 212000Z 2121/2221 04003G08MPS 9999 SCT030CB TEMPO 2121/2221 33006G12MPS OVC014CB